Elloree, South Carolina
Current Conditions -  °F | °C
As of 2:53 AM on Thursday 27 Nov 2014 (Local Time) from KOGB Reporting Station
Broken Clouds Broken Clouds  
Wind Chill: 36°   Ceiling: 10000
Heat Index: 41°   Visibility: 10mi
Dew Point: 35°   Wind: 7mph
Humidity: 79%   Direction: 210°SSW
Pressure: 30.09"   Gusts: NA
Location:  33.53°N, 80.57°W
Report Text: KOGB 270753Z AUTO 21006KT 10SM SCT080 BKN100 05/02 A3009 RMK AO2 SLP187 T00500017
Loading
Personal Weather Stations






























Interactive Weather Map New forecast layout! Learn more

10-Day Weather Forecast

Advertisements
Track Severe Weather on mobile